createdAt,value
2023-05-20T00:00:33.914Z,102094.75
2023-05-20T00:03:02.145Z,102095.22
2023-05-20T00:05:30.259Z,102104.56
2023-05-20T00:07:58.438Z,102106.84
2023-05-20T00:10:26.951Z,102103.47
2023-05-20T00:12:56.525Z,102108.31
2023-05-20T00:15:24.704Z,102094.09
2023-05-20T00:17:53.210Z,102099.75
2023-05-20T00:20:21.855Z,102103.56
2023-05-20T00:22:50.340Z,102108.22
2023-05-20T00:25:18.440Z,102105.00
2023-05-20T00:27:47.339Z,102103.63
2023-05-20T00:30:17.412Z,102105.06
2023-05-20T00:32:45.703Z,102096.16
2023-05-20T00:35:14.154Z,102099.97
2023-05-20T00:37:42.712Z,102102.94
2023-05-20T00:40:14.151Z,102091.88
2023-05-20T00:42:43.980Z,102101.84
2023-05-20T00:45:12.722Z,102097.81
2023-05-20T00:47:44.419Z,102097.09
2023-05-20T00:50:13.320Z,102095.72
2023-05-20T00:52:45.309Z,102088.03
2023-05-20T00:55:13.604Z,102090.00
2023-05-20T00:57:42.046Z,102083.69
2023-05-20T01:00:13.749Z,102092.81
2023-05-20T01:02:43.553Z,102099.44
2023-05-20T01:05:12.357Z,102091.44
2023-05-20T01:07:41.054Z,102094.25
2023-05-20T01:10:11.666Z,102087.41
2023-05-20T01:12:44.030Z,102092.03
2023-05-20T01:15:14.588Z,102103.00
2023-05-20T01:17:47.450Z,102098.81
2023-05-20T01:20:16.455Z,102102.47
2023-05-20T01:22:50.309Z,102104.28
2023-05-20T01:25:19.420Z,102106.25
2023-05-20T01:27:49.039Z,102108.78
2023-05-20T01:30:17.663Z,102108.41
2023-05-20T01:32:51.652Z,102107.72
2023-05-20T01:35:22.403Z,102108.56
2023-05-20T01:37:54.409Z,102105.19
2023-05-20T01:40:23.628Z,102103.50
2023-05-20T01:42:55.348Z,102101.81
2023-05-20T01:45:25.690Z,102102.94
2023-05-20T01:47:53.995Z,102106.75
2023-05-20T01:50:22.495Z,102106.06
2023-05-20T01:52:52.268Z,102104.41
2023-05-20T01:55:20.847Z,102107.22
2023-05-20T01:57:48.967Z,102102.84
2023-05-20T02:00:17.342Z,102110.00
2023-05-20T02:02:45.696Z,102108.34
2023-05-20T02:05:14.369Z,102111.16
2023-05-20T02:07:42.452Z,102115.78
2023-05-20T02:10:13.168Z,102116.91
2023-05-20T02:12:41.362Z,102125.09
2023-05-20T02:15:10.653Z,102128.59
2023-05-20T02:17:39.834Z,102122.56
2023-05-20T02:20:10.329Z,102115.41
2023-05-20T02:22:38.581Z,102116.25
2023-05-20T02:25:08.536Z,102109.22
2023-05-20T02:27:40.048Z,102120.88
2023-05-20T02:30:09.415Z,102120.19
2023-05-20T02:32:38.341Z,102115.81
2023-05-20T02:35:08.334Z,102116.81
2023-05-20T02:37:36.426Z,102111.34
2023-05-20T02:40:05.252Z,102115.81
2023-05-20T02:42:33.931Z,102122.00
2023-05-20T02:45:03.669Z,102119.19
2023-05-20T02:47:32.011Z,102128.88
2023-05-20T02:50:00.285Z,102123.09
2023-05-20T02:52:28.931Z,102109.31
2023-05-20T02:55:23.936Z,102111.41
2023-05-20T02:57:52.457Z,102109.69
2023-05-20T03:00:23.772Z,102122.69
2023-05-20T03:02:52.387Z,102122.75
2023-05-20T03:05:20.504Z,102115.44
2023-05-20T03:07:48.897Z,102121.66
2023-05-20T03:10:17.376Z,102118.81
2023-05-20T03:12:45.534Z,102130.34
2023-05-20T03:15:14.020Z,102138.66
2023-05-20T03:17:44.031Z,102137.28
2023-05-20T03:20:13.415Z,102146.34
2023-05-20T03:22:41.880Z,102141.09
2023-05-20T03:25:11.059Z,102137.47
2023-05-20T03:27:39.141Z,102132.84
2023-05-20T03:30:09.691Z,102139.03
2023-05-20T03:32:37.982Z,102130.53
2023-05-20T03:35:10.376Z,102140.41
2023-05-20T03:37:38.664Z,102137.03
2023-05-20T03:40:08.710Z,102132.84
2023-05-20T03:42:36.847Z,102138.72
2023-05-20T03:45:06.055Z,102144.63
2023-05-20T03:47:34.213Z,102139.25
2023-05-20T03:50:02.646Z,102136.06
2023-05-20T03:52:32.203Z,102138.34
2023-05-20T03:55:00.459Z,102134.09
2023-05-20T03:57:29.590Z,102134.91
2023-05-20T03:59:58.070Z,102139.00
2023-05-20T04:02:26.329Z,102145.69
2023-05-20T04:04:57.797Z,102153.69
2023-05-20T04:07:26.019Z,102153.22
2023-05-20T04:09:55.891Z,102153.47
2023-05-20T04:12:26.176Z,102152.53
2023-05-20T04:14:55.757Z,102151.06
2023-05-20T04:17:23.827Z,102145.75
2023-05-20T04:19:51.961Z,102143.28
2023-05-20T04:22:20.294Z,102139.97
2023-05-20T04:24:48.835Z,102146.22
2023-05-20T04:27:18.719Z,102150.09
2023-05-20T04:29:47.484Z,102139.91
2023-05-20T04:32:19.881Z,102140.25
2023-05-20T04:34:48.821Z,102141.78
2023-05-20T04:37:17.430Z,102144.00
2023-05-20T04:39:48.433Z,102140.66
2023-05-20T04:42:19.539Z,102138.19
2023-05-20T04:44:48.104Z,102138.50
2023-05-20T04:47:16.651Z,102135.38
2023-05-20T04:49:45.812Z,102135.38
2023-05-20T04:52:14.139Z,102138.25
2023-05-20T04:54:42.720Z,102138.94
2023-05-20T04:57:11.300Z,102142.31
2023-05-20T04:59:41.246Z,102143.84
2023-05-20T05:02:09.808Z,102143.84
2023-05-20T05:04:37.994Z,102151.25
2023-05-20T05:07:06.678Z,102157.09
2023-05-20T05:09:35.032Z,102150.75
2023-05-20T05:12:06.474Z,102153.59
2023-05-20T05:14:34.622Z,102156.09
2023-05-20T05:17:04.311Z,102161.16
2023-05-20T05:19:32.803Z,102155.81
2023-05-20T05:22:01.542Z,102161.00
2023-05-20T05:24:30.091Z,102154.66
2023-05-20T05:26:58.667Z,102159.50
2023-05-20T05:29:26.837Z,102164.84
2023-05-20T05:31:55.709Z,102170.41
2023-05-20T05:34:25.791Z,102169.72
2023-05-20T05:36:54.268Z,102167.22
2023-05-20T05:39:22.747Z,102168.88
2023-05-20T05:41:51.184Z,102174.25
2023-05-20T05:44:19.713Z,102169.22
2023-05-20T05:46:47.813Z,102170.91
2023-05-20T05:49:16.111Z,102170.56
2023-05-20T05:51:45.630Z,102173.41
2023-05-20T05:54:16.500Z,102178.91
2023-05-20T05:56:44.554Z,102173.03
2023-05-20T05:59:13.368Z,102179.22
2023-05-20T06:01:41.632Z,102178.50
2023-05-20T06:04:10.310Z,102179.28
2023-05-20T06:06:38.523Z,102176.91
2023-05-20T06:09:08.364Z,102172.94
2023-05-20T06:11:36.573Z,102180.56
2023-05-20T06:14:05.169Z,102173.69
2023-05-20T06:16:33.488Z,102177.94
2023-05-20T06:19:03.657Z,102175.19
2023-05-20T06:21:32.175Z,102166.97
2023-05-20T06:24:00.506Z,102177.25
2023-05-20T06:26:30.027Z,102176.75
2023-05-20T06:28:58.749Z,102175.44
2023-05-20T06:31:26.930Z,102175.72
2023-05-20T06:33:55.527Z,102177.69
2023-05-20T06:36:23.860Z,102178.69
2023-05-20T06:38:52.471Z,102188.63
2023-05-20T06:41:21.950Z,102180.28
2023-05-20T06:43:53.231Z,102190.47
2023-05-20T06:46:21.728Z,102192.81
2023-05-20T06:48:49.920Z,102181.28
2023-05-20T06:51:18.821Z,102185.72
2023-05-20T06:53:47.055Z,102195.81
2023-05-20T06:56:15.982Z,102180.94
2023-05-20T06:58:44.056Z,102182.59
2023-05-20T07:01:16.021Z,102180.09
2023-05-20T07:03:46.139Z,102184.41
2023-05-20T07:06:14.499Z,102187.66
2023-05-20T07:08:42.761Z,102188.16
2023-05-20T07:11:10.850Z,102185.75
2023-05-20T07:13:39.159Z,102189.75
2023-05-20T07:16:07.594Z,102188.66
2023-05-20T07:18:37.663Z,102178.75
2023-05-20T07:21:06.548Z,102186.53
2023-05-20T07:23:34.626Z,102184.72
2023-05-20T07:26:03.525Z,102184.53
2023-05-20T07:28:31.734Z,102177.94
2023-05-20T07:31:00.397Z,102179.03
2023-05-20T07:33:29.795Z,102170.13
2023-05-20T07:36:00.805Z,102164.94
2023-05-20T07:38:28.993Z,102166.25
2023-05-20T07:40:57.081Z,102165.63
2023-05-20T07:43:25.244Z,102165.00
2023-05-20T07:45:53.871Z,102168.56
2023-05-20T07:48:22.093Z,102170.25
2023-05-20T07:50:50.271Z,102165.25
2023-05-20T07:53:20.260Z,102159.84
2023-05-20T07:55:48.413Z,102160.25
2023-05-20T07:58:16.850Z,102152.31
2023-05-20T08:00:46.062Z,102157.50
2023-05-20T08:03:15.026Z,102161.88
2023-05-20T08:05:43.588Z,102150.16
2023-05-20T08:08:12.082Z,102159.97
2023-05-20T08:10:41.779Z,102151.84
2023-05-20T08:13:10.027Z,102155.97
2023-05-20T08:15:38.326Z,102149.66
2023-05-20T08:18:06.590Z,102154.00
2023-05-20T08:20:35.145Z,102153.56
2023-05-20T08:23:03.311Z,102155.84
2023-05-20T08:25:31.416Z,102149.63
2023-05-20T08:28:04.031Z,102147.56
2023-05-20T08:30:32.290Z,102150.09
2023-05-20T08:33:01.218Z,102155.72
2023-05-20T08:35:31.038Z,102147.97
2023-05-20T08:38:01.437Z,102148.13
2023-05-20T08:40:30.421Z,102150.22
2023-05-20T08:43:02.009Z,102143.75
2023-05-20T08:45:34.158Z,102153.28
2023-05-20T08:48:03.153Z,102152.25
2023-05-20T08:50:31.506Z,102150.22
2023-05-20T08:53:12.892Z,102150.63
2023-05-20T08:55:46.925Z,102152.66
2023-05-20T08:58:17.873Z,102144.88
2023-05-20T09:00:46.188Z,102142.16
2023-05-20T09:03:14.376Z,102143.25
2023-05-20T09:05:42.537Z,102144.88
2023-05-20T09:08:12.651Z,102136.47
2023-05-20T09:10:42.284Z,102143.06
2023-05-20T09:13:11.736Z,102148.81
2023-05-20T09:15:41.489Z,102140.34
2023-05-20T09:18:10.011Z,102135.84
2023-05-20T09:20:41.147Z,102131.22
2023-05-20T09:23:11.335Z,102129.53
2023-05-20T09:25:39.929Z,102125.03
2023-05-20T09:28:09.398Z,102131.44
2023-05-20T09:30:37.573Z,102137.34
2023-05-20T09:33:09.372Z,102128.03
2023-05-20T09:35:39.291Z,102129.25
2023-05-20T09:38:08.794Z,102136.75
2023-05-20T09:40:40.762Z,102136.88
2023-05-20T09:43:11.484Z,102129.09
2023-05-20T09:45:40.406Z,102132.00
2023-05-20T09:48:13.215Z,102137.72
2023-05-20T09:50:43.630Z,102127.50
2023-05-20T09:53:13.469Z,102126.66
2023-05-20T09:55:42.255Z,102130.34
2023-05-20T09:58:16.291Z,102124.47
2023-05-20T10:00:44.635Z,102136.19
2023-05-20T10:03:15.029Z,102133.25
2023-05-20T10:05:48.990Z,102135.16
2023-05-20T10:08:43.258Z,102131.66
2023-05-20T10:11:23.744Z,102136.50
2023-05-20T10:14:09.882Z,102136.03
2023-05-20T10:16:45.784Z,102121.91
2023-05-20T10:19:29.944Z,102118.13
2023-05-20T10:21:59.642Z,102115.25
2023-05-20T10:24:35.454Z,102113.81
2023-05-20T10:27:05.880Z,102115.47
2023-05-20T10:29:44.891Z,102103.91
2023-05-20T10:32:14.223Z,102105.13
2023-05-20T10:34:50.362Z,102100.66
2023-05-20T10:37:29.959Z,102098.69
2023-05-20T10:40:12.321Z,102099.28
2023-05-20T10:42:41.226Z,102097.38
2023-05-20T10:45:11.135Z,102091.56
2023-05-20T10:47:43.864Z,102094.03
2023-05-20T10:50:29.429Z,102084.50
2023-05-20T10:53:04.886Z,102083.44
2023-05-20T10:55:38.430Z,102073.63
2023-05-20T10:58:08.214Z,102073.16
2023-05-20T11:00:37.752Z,102064.16
2023-05-20T11:03:08.031Z,102071.53
2023-05-20T11:05:38.122Z,102056.78
2023-05-20T11:08:16.883Z,102049.69
2023-05-20T11:10:52.619Z,102049.00
2023-05-20T11:13:20.878Z,102051.53
2023-05-20T11:15:50.972Z,102044.81
2023-05-20T11:18:19.415Z,102046.34
2023-05-20T11:20:49.361Z,102036.78
2023-05-20T11:23:17.464Z,102037.22
2023-05-20T11:25:45.771Z,102041.28
2023-05-20T11:28:14.918Z,102036.72
2023-05-20T11:30:44.099Z,102027.53
2023-05-20T11:33:14.299Z,102016.13
2023-05-20T11:35:46.710Z,102026.22
2023-05-20T11:38:17.096Z,102023.97
2023-05-20T11:40:50.960Z,102023.38
2023-05-20T11:43:20.325Z,102030.38
2023-05-20T11:45:49.831Z,102026.00
2023-05-20T11:48:18.014Z,102031.59
2023-05-20T11:50:48.843Z,102032.44
2023-05-20T11:53:19.450Z,102034.72
2023-05-20T11:55:50.279Z,102029.03
2023-05-20T11:58:20.013Z,102029.50
2023-05-20T12:00:53.191Z,102033.63
2023-05-20T12:03:26.108Z,102029.91
2023-05-20T12:05:54.842Z,102029.22
2023-05-20T12:08:24.541Z,102032.81
2023-05-20T12:10:53.286Z,102025.97
2023-05-20T12:13:21.444Z,102028.88
2023-05-20T12:15:49.635Z,102022.63
2023-05-20T12:18:18.368Z,102020.31
2023-05-20T12:20:46.856Z,102024.47
2023-05-20T12:23:15.031Z,102021.78
2023-05-20T12:25:47.451Z,102014.25
2023-05-20T12:28:16.365Z,102014.25
2023-05-20T12:30:45.084Z,102013.84
2023-05-20T12:33:13.816Z,102008.59
2023-05-20T12:35:43.218Z,102004.94
2023-05-20T12:38:12.003Z,101988.97
2023-05-20T12:40:40.587Z,102001.56
2023-05-20T12:43:10.381Z,101999.16
2023-05-20T12:45:38.492Z,101995.50
2023-05-20T12:48:08.096Z,101998.66
2023-05-20T12:50:36.555Z,101987.63
2023-05-20T12:53:04.907Z,101988.59
2023-05-20T12:55:33.019Z,101986.84
2023-05-20T12:58:01.155Z,101984.44
2023-05-20T13:00:31.419Z,101977.22
2023-05-20T13:02:59.835Z,101971.69
2023-05-20T13:05:28.514Z,101974.41
2023-05-20T13:07:56.600Z,101978.28
2023-05-20T13:10:24.711Z,101975.91
2023-05-20T13:12:52.869Z,101982.19
2023-05-20T13:15:20.956Z,101979.00
2023-05-20T13:17:50.516Z,101972.47
2023-05-20T13:20:21.643Z,101967.25
2023-05-20T13:22:50.458Z,101967.78
2023-05-20T13:25:19.217Z,101964.97
2023-05-20T13:27:47.404Z,101961.53
2023-05-20T13:30:15.567Z,101961.63
2023-05-20T13:32:44.169Z,101948.97
2023-05-20T13:35:14.803Z,101942.91
2023-05-20T13:37:43.078Z,101945.72
2023-05-20T13:40:12.157Z,101945.84
2023-05-20T13:42:42.730Z,101946.09
2023-05-20T13:45:12.357Z,101936.47
2023-05-20T13:47:40.687Z,101941.47
2023-05-20T13:50:10.246Z,101933.41
2023-05-20T13:52:39.823Z,101931.88
2023-05-20T13:55:09.244Z,101918.47
2023-05-20T13:57:37.822Z,101923.34
2023-05-20T14:00:07.540Z,101916.22
2023-05-20T14:02:35.830Z,101921.88
2023-05-20T14:05:04.029Z,101921.25
2023-05-20T14:07:32.366Z,101923.91
2023-05-20T14:10:02.409Z,101926.88
2023-05-20T14:12:30.764Z,101913.59
2023-05-20T14:14:59.855Z,101905.97
2023-05-20T14:17:28.003Z,101902.75
2023-05-20T14:20:09.214Z,101911.09
2023-05-20T14:22:37.388Z,101913.47
2023-05-20T14:25:08.171Z,101910.03
2023-05-20T14:27:36.690Z,101909.63
2023-05-20T14:30:06.008Z,101910.13
2023-05-20T14:32:35.319Z,101909.03
2023-05-20T14:35:03.584Z,101903.00
2023-05-20T14:37:32.166Z,101892.38
2023-05-20T14:40:02.015Z,101898.81
2023-05-20T14:42:31.777Z,101899.41
2023-05-20T14:45:00.009Z,101897.81
2023-05-20T14:47:28.237Z,101898.78
2023-05-20T14:49:58.131Z,101890.09
2023-05-20T14:52:26.272Z,101889.59
2023-05-20T14:54:54.381Z,101889.72
2023-05-20T14:57:22.665Z,101885.31
2023-05-20T14:59:52.812Z,101882.38
2023-05-20T15:02:21.130Z,101886.97
2023-05-20T15:04:49.331Z,101892.91
2023-05-20T15:07:17.587Z,101883.66
2023-05-20T15:09:45.771Z,101879.63
2023-05-20T15:12:14.119Z,101880.34
2023-05-20T15:14:42.249Z,101881.94
2023-05-20T15:17:11.895Z,101869.72
2023-05-20T15:19:41.879Z,101875.59
2023-05-20T15:22:10.534Z,101872.16
2023-05-20T15:24:38.778Z,101879.19
2023-05-20T15:27:07.295Z,101871.22
2023-05-20T15:29:35.429Z,101872.84
2023-05-20T15:32:04.992Z,101865.00
2023-05-20T15:34:35.669Z,101870.28
2023-05-20T15:37:03.942Z,101871.28
2023-05-20T15:39:32.130Z,101864.44
2023-05-20T15:42:02.359Z,101861.13
2023-05-20T15:44:30.581Z,101871.69
2023-05-20T15:46:59.009Z,101872.94
2023-05-20T15:49:27.217Z,101862.03
2023-05-20T15:52:03.487Z,101858.94
2023-05-20T15:54:32.685Z,101855.13
2023-05-20T15:57:01.130Z,101854.69
2023-05-20T15:59:29.341Z,101839.06
2023-05-20T16:01:57.509Z,101845.34
2023-05-20T16:04:26.021Z,101845.50
2023-05-20T16:06:54.708Z,101846.38
2023-05-20T16:09:25.288Z,101848.22
2023-05-20T16:11:54.330Z,101844.53
2023-05-20T16:14:22.600Z,101842.53
2023-05-20T16:16:51.207Z,101840.69
2023-05-20T16:19:19.729Z,101834.25
2023-05-20T16:21:47.968Z,101839.91
2023-05-20T16:24:16.683Z,101832.97
2023-05-20T16:26:46.350Z,101829.63
2023-05-20T16:29:16.350Z,101827.47
2023-05-20T16:31:47.072Z,101824.09
2023-05-20T16:34:17.060Z,101821.69
2023-05-20T16:36:46.468Z,101827.47
2023-05-20T16:39:15.392Z,101827.25
2023-05-20T16:41:45.794Z,101821.38
2023-05-20T16:44:13.918Z,101824.44
2023-05-20T16:46:42.234Z,101828.19
2023-05-20T16:49:10.463Z,101824.78
2023-05-20T16:51:38.607Z,101825.06
2023-05-20T16:54:08.275Z,101820.53
2023-05-20T16:56:37.207Z,101823.63
2023-05-20T16:59:06.755Z,101813.84
2023-05-20T17:01:34.976Z,101821.41
2023-05-20T17:04:03.699Z,101815.88
2023-05-20T17:06:34.403Z,101823.56
2023-05-20T17:09:04.783Z,101821.31
2023-05-20T17:11:33.633Z,101815.69
2023-05-20T17:14:07.952Z,101830.88
2023-05-20T17:16:37.938Z,101829.34
2023-05-20T17:19:06.295Z,101823.38
2023-05-20T17:21:34.703Z,101825.53
2023-05-20T17:24:05.616Z,101834.13
2023-05-20T17:26:33.725Z,101823.06
2023-05-20T17:29:02.016Z,101815.63
2023-05-20T17:31:30.127Z,101822.84
2023-05-20T17:34:00.102Z,101812.50
2023-05-20T17:36:28.902Z,101813.16
2023-05-20T17:38:57.473Z,101827.28
2023-05-20T17:41:26.351Z,101823.56
2023-05-20T17:43:55.352Z,101822.56
2023-05-20T17:46:23.787Z,101830.09
2023-05-20T17:48:51.966Z,101822.88
2023-05-20T17:51:21.516Z,101827.97
2023-05-20T17:53:50.058Z,101828.13
2023-05-20T17:56:18.215Z,101826.56
2023-05-20T17:58:48.312Z,101836.78
2023-05-20T18:01:16.581Z,101828.31
2023-05-20T18:03:44.828Z,101814.44
2023-05-20T18:06:13.243Z,101820.91
2023-05-20T18:08:42.827Z,101822.91
2023-05-20T18:11:10.962Z,101827.91
2023-05-20T18:13:39.163Z,101829.00
2023-05-20T18:16:14.940Z,101831.78
2023-05-20T18:18:43.149Z,101825.78
2023-05-20T18:21:11.511Z,101821.94
2023-05-20T18:23:39.670Z,101829.66
2023-05-20T18:26:09.330Z,101824.44
2023-05-20T18:28:37.477Z,101828.03
2023-05-20T18:31:05.726Z,101818.69
2023-05-20T18:33:34.276Z,101821.13
2023-05-20T18:36:02.675Z,101826.56
2023-05-20T18:38:32.996Z,101821.88
2023-05-20T18:41:02.427Z,101823.56
2023-05-20T18:43:32.021Z,101823.72
2023-05-20T18:46:00.382Z,101826.56
2023-05-20T18:48:29.428Z,101830.31
2023-05-20T18:50:58.688Z,101833.75
2023-05-20T18:53:26.990Z,101825.38
2023-05-20T18:56:03.057Z,101826.81
2023-05-20T18:58:32.742Z,101831.69
2023-05-20T19:01:01.436Z,101832.13
2023-05-20T19:03:30.384Z,101835.34
2023-05-20T19:05:58.664Z,101829.25
2023-05-20T19:08:27.498Z,101835.03
2023-05-20T19:10:55.726Z,101826.59
2023-05-20T19:13:25.034Z,101833.47
2023-05-20T19:15:54.798Z,101835.53
2023-05-20T19:18:22.886Z,101834.44
2023-05-20T19:20:52.492Z,101836.88
2023-05-20T19:23:20.885Z,101838.41
2023-05-20T19:25:49.100Z,101841.28
2023-05-20T19:28:17.194Z,101834.28
2023-05-20T19:30:45.451Z,101837.31
2023-05-20T19:33:15.016Z,101839.88
2023-05-20T19:35:43.655Z,101841.97
2023-05-20T19:38:12.545Z,101843.28
2023-05-20T19:40:40.730Z,101837.88
2023-05-20T19:43:08.946Z,101837.47
2023-05-20T19:45:37.307Z,101840.00
2023-05-20T19:48:08.083Z,101839.16
2023-05-20T19:50:37.986Z,101835.59
2023-05-20T19:53:07.566Z,101840.53
2023-05-20T19:55:36.236Z,101844.03
2023-05-20T19:58:04.896Z,101848.38
2023-05-20T20:00:33.041Z,101844.59
2023-05-20T20:03:03.547Z,101836.03
2023-05-20T20:05:31.709Z,101834.75
2023-05-20T20:08:01.513Z,101842.19
2023-05-20T20:10:30.721Z,101839.66
2023-05-20T20:12:59.098Z,101843.34
2023-05-20T20:15:31.782Z,101843.88
2023-05-20T20:18:00.050Z,101848.81
2023-05-20T20:20:28.191Z,101847.91
2023-05-20T20:22:56.560Z,101846.84
2023-05-20T20:25:26.824Z,101850.53
2023-05-20T20:27:54.974Z,101860.25
2023-05-20T20:30:23.151Z,101853.56
2023-05-20T20:35:22.746Z,101859.44
2023-05-20T20:38:11.906Z,101863.09
2023-05-20T20:40:42.802Z,101854.34
2023-05-20T20:43:20.463Z,101856.13
2023-05-20T20:45:53.271Z,101850.47
2023-05-20T20:48:26.890Z,101854.13
2023-05-20T20:50:55.451Z,101847.22
2023-05-20T20:53:23.634Z,101850.66
2023-05-20T20:55:53.355Z,101839.81
2023-05-20T20:58:22.791Z,101841.56
2023-05-20T21:00:50.896Z,101847.09
2023-05-20T21:03:23.982Z,101836.22
2023-05-20T21:05:52.893Z,101845.72
2023-05-20T21:08:22.205Z,101838.41
2023-05-20T21:10:50.356Z,101840.63
2023-05-20T21:13:19.817Z,101841.38
2023-05-20T21:15:48.863Z,101841.09
2023-05-20T21:18:21.812Z,101830.91
2023-05-20T21:20:50.108Z,101826.75
2023-05-20T21:23:18.271Z,101837.88
2023-05-20T21:25:46.828Z,101827.66
2023-05-20T21:28:15.427Z,101832.78
2023-05-20T21:30:46.075Z,101825.47
2023-05-20T21:33:14.255Z,101836.78
2023-05-20T21:35:42.994Z,101836.69
2023-05-20T21:38:13.473Z,101835.19
2023-05-20T21:40:41.832Z,101830.38
2023-05-20T21:43:09.961Z,101829.09
2023-05-20T21:45:38.215Z,101825.94
2023-05-20T21:48:08.716Z,101827.50
2023-05-20T21:50:36.926Z,101832.59
2023-05-20T21:53:05.065Z,101821.56
2023-05-20T21:55:33.254Z,101816.75
2023-05-20T21:58:01.569Z,101827.88
2023-05-20T22:00:29.750Z,101824.84
2023-05-20T22:02:58.131Z,101825.22
2023-05-20T22:05:27.679Z,101827.44
2023-05-20T22:07:55.915Z,101824.09
2023-05-20T22:10:24.073Z,101825.47
2023-05-20T22:12:52.560Z,101816.75
2023-05-20T22:15:20.947Z,101821.69
2023-05-20T22:17:49.648Z,101816.50
2023-05-20T22:20:18.324Z,101813.16
2023-05-20T22:22:48.329Z,101815.19
2023-05-20T22:25:17.404Z,101815.53
2023-05-20T22:27:45.576Z,101816.91
2023-05-20T22:30:14.855Z,101814.78
2023-05-20T22:32:43.008Z,101813.63
2023-05-20T22:35:13.169Z,101815.88
2023-05-20T22:37:41.840Z,101814.38
2023-05-20T22:40:12.131Z,101814.91
2023-05-20T22:42:40.185Z,101811.06
2023-05-20T22:45:09.734Z,101808.13
2023-05-20T22:47:38.289Z,101811.31
2023-05-20T22:50:42.699Z,101812.69
2023-05-20T22:53:11.202Z,101810.06
2023-05-20T22:55:41.201Z,101805.13
2023-05-20T22:58:09.380Z,101808.88
2023-05-20T23:00:37.899Z,101811.75
2023-05-20T23:03:06.607Z,101811.66
2023-05-20T23:05:35.459Z,101808.81
2023-05-20T23:08:04.177Z,101807.69
2023-05-20T23:10:32.750Z,101814.72
2023-05-20T23:13:02.273Z,101802.69
2023-05-20T23:15:30.908Z,101797.16
2023-05-20T23:17:58.976Z,101793.34
2023-05-20T23:20:29.344Z,101791.34
2023-05-20T23:22:58.079Z,101797.59
2023-05-20T23:25:27.904Z,101785.72
2023-05-20T23:27:56.506Z,101785.38
2023-05-20T23:30:26.509Z,101780.72
2023-05-20T23:32:55.759Z,101779.56
2023-05-20T23:35:24.038Z,101774.91
2023-05-20T23:37:53.415Z,101780.09
2023-05-20T23:40:21.606Z,101777.13
2023-05-20T23:42:49.726Z,101779.78
2023-05-20T23:45:19.114Z,101782.16
2023-05-20T23:47:49.287Z,101784.84
2023-05-20T23:50:17.590Z,101782.19
2023-05-20T23:52:46.419Z,101790.69
2023-05-20T23:55:14.612Z,101794.06
2023-05-20T23:57:42.968Z,101792.03
